createdAt,value
2019-04-30T00:00:00.264Z,97862.41
2019-04-30T00:01:15.201Z,97867.81
2019-04-30T00:02:23.027Z,97864.83
2019-04-30T00:03:26.726Z,97867.93
2019-04-30T00:04:39.293Z,97866.89
2019-04-30T00:05:38.577Z,97866.87
2019-04-30T00:06:40.750Z,97861.25
2019-04-30T00:07:42.953Z,97871.59
2019-04-30T00:08:45.588Z,97869.26
2019-04-30T00:09:49.321Z,97867.56
2019-04-30T00:10:52.127Z,97870.09
2019-04-30T00:11:57.800Z,97868.80
2019-04-30T00:12:58.447Z,97862.14
2019-04-30T00:14:02.418Z,97862.58
2019-04-30T00:15:06.215Z,97860.91
2019-04-30T00:16:08.271Z,97862.53
2019-04-30T00:17:15.806Z,97859.59
2019-04-30T00:18:16.378Z,97856.84
2019-04-30T00:19:19.873Z,97858.22
2019-04-30T00:20:22.199Z,97859.80
2019-04-30T00:21:27.685Z,97857.76
2019-04-30T00:22:33.780Z,97861.95
2019-04-30T00:23:35.998Z,97863.05
2019-04-30T00:24:39.811Z,97859.30
2019-04-30T00:25:43.051Z,97853.64
2019-04-30T00:26:52.013Z,97863.11
2019-04-30T00:27:50.899Z,97856.30
2019-04-30T00:28:55.306Z,97859.59
2019-04-30T00:30:00.408Z,97852.66
2019-04-30T00:31:02.301Z,97859.40
2019-04-30T00:32:07.890Z,97852.55
2019-04-30T00:33:09.698Z,97858.75
2019-04-30T00:34:12.055Z,97853.78
2019-04-30T00:35:16.281Z,97862.38
2019-04-30T00:36:18.843Z,97865.02
2019-04-30T00:37:21.475Z,97860.34
2019-04-30T00:38:29.565Z,97860.61
2019-04-30T00:39:30.522Z,97857.35
2019-04-30T00:40:32.912Z,97860.12
2019-04-30T00:41:39.830Z,97861.49
2019-04-30T00:42:39.915Z,97858.06
2019-04-30T00:43:49.266Z,97857.48
2019-04-30T00:44:46.726Z,97857.64
2019-04-30T00:45:49.049Z,97857.88
2019-04-30T00:46:51.409Z,97857.70
2019-04-30T00:47:55.881Z,97858.29
2019-04-30T00:49:08.854Z,97857.88
2019-04-30T00:50:05.065Z,97859.53
2019-04-30T00:51:14.018Z,97854.95
2019-04-30T00:52:15.366Z,97854.47
2019-04-30T00:53:29.456Z,97858.50
2019-04-30T00:54:35.158Z,97855.43
2019-04-30T00:55:44.398Z,97851.05
2019-04-30T00:56:42.350Z,97854.56
2019-04-30T00:57:47.421Z,97854.16
2019-04-30T00:58:50.029Z,97855.97
2019-04-30T00:59:52.260Z,97859.45
2019-04-30T01:01:12.693Z,97855.17
2019-04-30T01:02:27.856Z,97853.75
2019-04-30T01:03:26.987Z,97857.84
2019-04-30T01:04:31.497Z,97855.77
2019-04-30T01:05:35.386Z,97851.54
2019-04-30T01:06:37.667Z,97854.70
2019-04-30T01:07:48.133Z,97852.40
2019-04-30T01:08:46.152Z,97858.55
2019-04-30T01:09:49.828Z,97858.53
2019-04-30T01:10:52.669Z,97849.50
2019-04-30T01:11:56.420Z,97856.17
2019-04-30T01:12:59.775Z,97856.61
2019-04-30T01:14:03.603Z,97859.74
2019-04-30T01:15:11.190Z,97860.28
2019-04-30T01:16:11.196Z,97860.75
2019-04-30T01:17:14.419Z,97861.09
2019-04-30T01:18:19.167Z,97860.81
2019-04-30T01:19:29.903Z,97860.44
2019-04-30T01:20:29.120Z,97861.23
2019-04-30T01:21:31.208Z,97856.48
2019-04-30T01:22:33.391Z,97868.45
2019-04-30T01:23:36.220Z,97868.29
2019-04-30T01:24:38.812Z,97862.50
2019-04-30T01:25:43.230Z,97861.23
2019-04-30T01:26:48.590Z,97864.09
2019-04-30T01:27:52.152Z,97862.65
2019-04-30T01:29:00.614Z,97858.38
2019-04-30T01:30:00.683Z,97859.45
2019-04-30T01:31:02.803Z,97859.55
2019-04-30T01:32:05.659Z,97858.80
2019-04-30T01:33:09.129Z,97856.37
2019-04-30T01:34:14.153Z,97848.83
2019-04-30T01:35:18.942Z,97859.86
2019-04-30T01:36:21.087Z,97850.65
2019-04-30T01:37:28.652Z,97855.31
2019-04-30T01:38:28.661Z,97859.85
2019-04-30T01:39:31.719Z,97854.81
2019-04-30T01:40:38.404Z,97854.27
2019-04-30T01:41:41.248Z,97852.41
2019-04-30T01:42:48.480Z,97861.86
2019-04-30T01:43:48.719Z,97856.58
2019-04-30T01:44:53.844Z,97860.20
2019-04-30T01:45:55.969Z,97865.28
2019-04-30T01:46:58.809Z,97862.81
2019-04-30T01:48:08.958Z,97863.55
2019-04-30T01:49:05.802Z,97857.89
2019-04-30T01:50:09.257Z,97855.69
2019-04-30T01:51:17.766Z,97853.80
2019-04-30T01:52:19.252Z,97859.05
2019-04-30T01:53:21.874Z,97856.87
2019-04-30T01:54:24.326Z,97852.33
2019-04-30T01:55:41.451Z,97857.39
2019-04-30T01:57:02.888Z,97855.05
2019-04-30T01:58:20.765Z,97867.02
2019-04-30T01:59:25.484Z,97856.98
2019-04-30T02:00:49.313Z,97857.16
2019-04-30T02:01:52.356Z,97859.48
2019-04-30T02:02:54.756Z,97862.77
2019-04-30T02:03:58.501Z,97859.48
2019-04-30T02:05:00.835Z,97859.37
2019-04-30T02:06:03.610Z,97856.27
2019-04-30T02:07:05.784Z,97859.45
2019-04-30T02:08:08.533Z,97859.23
2019-04-30T02:09:13.037Z,97859.91
2019-04-30T02:10:16.425Z,97859.09
2019-04-30T02:11:19.187Z,97866.77
2019-04-30T02:12:21.885Z,97856.29
2019-04-30T02:13:24.581Z,97861.42
2019-04-30T02:14:28.647Z,97858.36
2019-04-30T02:15:31.219Z,97856.20
2019-04-30T02:16:33.502Z,97858.52
2019-04-30T02:17:36.321Z,97855.04
2019-04-30T02:18:39.395Z,97857.24
2019-04-30T02:19:53.665Z,97860.89
2019-04-30T02:20:46.497Z,97857.09
2019-04-30T02:21:48.780Z,97860.73
2019-04-30T02:22:52.703Z,97854.54
2019-04-30T02:23:55.072Z,97860.42
2019-04-30T02:24:58.550Z,97865.48
2019-04-30T02:26:01.391Z,97856.34
2019-04-30T02:27:03.883Z,97862.47
2019-04-30T02:28:06.347Z,97861.31
2019-04-30T02:29:09.206Z,97856.20
2019-04-30T02:30:12.020Z,97856.97
2019-04-30T02:31:14.116Z,97854.63
2019-04-30T02:32:16.497Z,97855.33
2019-04-30T02:33:20.155Z,97855.68
2019-04-30T02:34:24.831Z,97860.58
2019-04-30T02:35:36.269Z,97854.72
2019-04-30T02:36:46.102Z,97863.82
2019-04-30T02:38:09.990Z,97848.75
2019-04-30T02:39:13.143Z,97846.68
2019-04-30T02:40:15.921Z,97848.62
2019-04-30T02:41:20.589Z,97850.59
2019-04-30T02:42:24.918Z,97854.04
2019-04-30T02:43:30.329Z,97847.69
2019-04-30T02:44:34.905Z,97850.07
2019-04-30T02:45:40.103Z,97848.30
2019-04-30T02:46:43.248Z,97849.61
2019-04-30T02:47:50.019Z,97854.79
2019-04-30T02:48:54.195Z,97850.91
2019-04-30T02:50:14.141Z,97851.02
2019-04-30T02:51:09.942Z,97853.20
2019-04-30T02:52:13.942Z,97851.19
2019-04-30T02:53:50.521Z,97853.06
2019-04-30T02:54:55.859Z,97849.52
2019-04-30T02:55:59.490Z,97851.50
2019-04-30T02:57:04.669Z,97857.16
2019-04-30T02:58:09.500Z,97850.01
2019-04-30T02:59:12.321Z,97844.12
2019-04-30T03:00:20.457Z,97847.08
2019-04-30T03:01:22.753Z,97853.70
2019-04-30T03:02:25.884Z,97854.36
2019-04-30T03:03:29.917Z,97848.06
2019-04-30T03:04:32.742Z,97854.68
2019-04-30T03:05:35.650Z,97852.98
2019-04-30T03:06:40.124Z,97856.33
2019-04-30T03:07:42.341Z,97856.80
2019-04-30T03:08:44.589Z,97849.27
2019-04-30T03:09:49.917Z,97845.03
2019-04-30T03:10:52.841Z,97852.58
2019-04-30T03:11:55.901Z,97851.99
2019-04-30T03:13:00.024Z,97855.47
2019-04-30T03:14:03.831Z,97869.57
2019-04-30T03:15:09.280Z,97861.50
2019-04-30T03:16:12.602Z,97865.17
2019-04-30T03:17:17.126Z,97858.26
2019-04-30T03:18:23.130Z,97853.88
2019-04-30T03:19:30.392Z,97862.98
2019-04-30T03:20:36.411Z,97865.19
2019-04-30T03:21:41.036Z,97871.03
2019-04-30T03:22:43.365Z,97863.06
2019-04-30T03:23:50.360Z,97863.67
2019-04-30T03:24:52.416Z,97860.63
2019-04-30T03:25:54.667Z,97869.09
2019-04-30T03:26:59.234Z,97867.98
2019-04-30T03:28:00.582Z,97870.27
2019-04-30T03:29:04.225Z,97875.36
2019-04-30T03:30:11.665Z,97871.72
2019-04-30T03:31:12.721Z,97877.90
2019-04-30T03:32:15.208Z,97878.30
2019-04-30T03:33:22.360Z,97875.09
2019-04-30T03:34:25.679Z,97867.37
2019-04-30T03:35:31.756Z,97873.84
2019-04-30T03:36:32.780Z,97876.97
2019-04-30T03:37:35.953Z,97871.14
2019-04-30T03:38:39.638Z,97874.92
2019-04-30T03:39:43.206Z,97878.78
2019-04-30T03:40:45.543Z,97880.32
2019-04-30T03:41:50.182Z,97876.60
2019-04-30T03:42:52.261Z,97881.64
2019-04-30T03:43:54.727Z,97876.30
2019-04-30T03:44:59.079Z,97886.55
2019-04-30T03:46:02.789Z,97879.55
2019-04-30T03:47:04.768Z,97880.19
2019-04-30T03:48:09.923Z,97875.03
2019-04-30T03:49:13.596Z,97870.09
2019-04-30T03:50:15.964Z,97866.16
2019-04-30T03:51:19.946Z,97879.85
2019-04-30T03:52:22.667Z,97883.58
2019-04-30T03:53:26.598Z,97883.19
2019-04-30T03:54:29.452Z,97876.98
2019-04-30T03:55:32.057Z,97886.14
2019-04-30T03:56:34.495Z,97882.73
2019-04-30T03:57:39.889Z,97885.08
2019-04-30T03:58:44.063Z,97883.80
2019-04-30T03:59:46.592Z,97891.69
2019-04-30T04:00:55.227Z,97884.22
2019-04-30T04:02:05.238Z,97884.20
2019-04-30T04:03:10.148Z,97889.33
2019-04-30T04:04:16.257Z,97881.30
2019-04-30T04:05:24.724Z,97885.36
2019-04-30T04:06:29.311Z,97888.89
2019-04-30T04:07:45.832Z,97884.45
2019-04-30T04:08:50.175Z,97889.86
2019-04-30T04:09:53.809Z,97888.34
2019-04-30T04:11:06.648Z,97890.69
2019-04-30T04:12:21.266Z,97893.74
2019-04-30T04:13:23.576Z,97887.84
2019-04-30T04:14:26.177Z,97883.79
2019-04-30T04:15:29.936Z,97882.58
2019-04-30T04:16:32.983Z,97900.68
2019-04-30T04:17:35.803Z,97882.16
2019-04-30T04:18:40.021Z,97891.73
2019-04-30T04:19:41.569Z,97891.76
2019-04-30T04:20:43.908Z,97888.23
2019-04-30T04:21:45.721Z,97895.84
2019-04-30T04:22:49.633Z,97888.20
2019-04-30T04:23:52.829Z,97890.55
2019-04-30T04:24:54.761Z,97886.05
2019-04-30T04:25:59.597Z,97892.94
2019-04-30T04:27:02.538Z,97893.53
2019-04-30T04:28:04.990Z,97885.48
2019-04-30T04:29:09.407Z,97885.66
2019-04-30T04:30:12.085Z,97887.10
2019-04-30T04:31:15.719Z,97882.26
2019-04-30T04:32:20.635Z,97893.41
2019-04-30T04:33:22.498Z,97876.14
2019-04-30T04:34:24.412Z,97877.39
2019-04-30T04:35:29.636Z,97881.09
2019-04-30T04:36:30.923Z,97873.15
2019-04-30T04:37:32.945Z,97876.91
2019-04-30T04:38:35.529Z,97876.47
2019-04-30T04:39:38.927Z,97881.52
2019-04-30T04:40:43.161Z,97882.98
2019-04-30T04:41:45.536Z,97884.80
2019-04-30T04:42:49.324Z,97885.41
2019-04-30T04:43:51.470Z,97882.65
2019-04-30T04:44:54.275Z,97890.44
2019-04-30T04:45:55.945Z,97888.11
2019-04-30T04:47:00.135Z,97885.78
2019-04-30T04:48:03.051Z,97897.88
2019-04-30T04:49:05.529Z,97891.86
2019-04-30T04:50:10.384Z,97882.18
2019-04-30T04:51:27.675Z,97889.56
2019-04-30T04:52:21.059Z,97886.84
2019-04-30T04:53:22.434Z,97882.27
2019-04-30T04:54:24.779Z,97878.89
2019-04-30T04:55:29.717Z,97874.91
2019-04-30T04:56:33.291Z,97878.20
2019-04-30T04:57:35.405Z,97880.54
2019-04-30T04:58:39.981Z,97875.09
2019-04-30T04:59:42.787Z,97878.50
2019-04-30T05:00:45.095Z,97875.46
2019-04-30T05:01:48.961Z,97872.84
2019-04-30T05:03:05.485Z,97869.52
2019-04-30T05:04:11.449Z,97876.20
2019-04-30T05:05:12.271Z,97884.20
2019-04-30T05:06:15.221Z,97874.53
2019-04-30T05:07:19.578Z,97880.19
2019-04-30T05:08:22.251Z,97883.80
2019-04-30T05:09:28.564Z,97882.32
2019-04-30T05:10:31.123Z,97879.67
2019-04-30T05:11:33.909Z,97878.25
2019-04-30T05:12:37.940Z,97884.31
2019-04-30T05:13:41.249Z,97877.20
2019-04-30T05:14:43.925Z,97874.45
2019-04-30T05:15:46.467Z,97876.09
2019-04-30T05:16:50.635Z,97882.77
2019-04-30T05:17:52.812Z,97882.77
2019-04-30T05:18:55.759Z,97874.34
2019-04-30T05:19:58.793Z,97883.38
2019-04-30T05:21:01.301Z,97877.55
2019-04-30T05:22:05.004Z,97878.25
2019-04-30T05:23:09.386Z,97871.08
2019-04-30T05:24:11.861Z,97878.66
2019-04-30T05:25:14.742Z,97873.43
2019-04-30T05:26:19.091Z,97892.27
2019-04-30T05:27:21.889Z,97884.91
2019-04-30T05:28:24.285Z,97887.66
2019-04-30T05:29:28.803Z,97890.88
2019-04-30T05:30:30.877Z,97891.66
2019-04-30T05:31:33.120Z,97884.44
2019-04-30T05:32:35.712Z,97892.73
2019-04-30T05:33:39.090Z,97890.83
2019-04-30T05:34:40.915Z,97892.16
2019-04-30T05:35:43.804Z,97894.33
2019-04-30T05:36:48.844Z,97889.81
2019-04-30T05:37:51.783Z,97882.89
2019-04-30T05:38:53.962Z,97901.70
2019-04-30T05:39:55.872Z,97892.76
2019-04-30T05:40:59.573Z,97894.49
2019-04-30T05:42:02.158Z,97895.62
2019-04-30T05:43:04.837Z,97904.94
2019-04-30T05:44:09.056Z,97897.77
2019-04-30T05:45:13.718Z,97900.81
2019-04-30T05:46:16.555Z,97905.59
2019-04-30T05:47:19.666Z,97900.84
2019-04-30T05:48:22.646Z,97903.63
2019-04-30T05:49:24.518Z,97910.39
2019-04-30T05:50:27.001Z,97907.81
2019-04-30T05:51:29.445Z,97906.23
2019-04-30T05:52:31.947Z,97905.06
2019-04-30T05:53:35.123Z,97916.33
2019-04-30T05:54:39.008Z,97911.92
2019-04-30T05:55:41.358Z,97908.56
2019-04-30T05:56:44.024Z,97912.52
2019-04-30T05:57:53.931Z,97910.88
2019-04-30T05:58:50.569Z,97914.10
2019-04-30T05:59:52.883Z,97910.78
2019-04-30T06:00:54.927Z,97911.08
2019-04-30T06:01:59.228Z,97920.59
2019-04-30T06:03:02.190Z,97911.40
2019-04-30T06:04:05.001Z,97913.41
2019-04-30T06:05:08.767Z,97919.23
2019-04-30T06:06:12.183Z,97920.92
2019-04-30T06:07:14.195Z,97911.28
2019-04-30T06:08:19.283Z,97912.36
2019-04-30T06:09:40.682Z,97915.57
2019-04-30T06:10:45.837Z,97914.63
2019-04-30T06:11:49.392Z,97919.20
2019-04-30T06:13:10.130Z,97916.18
2019-04-30T06:14:18.596Z,97910.19
2019-04-30T06:15:24.618Z,97913.84
2019-04-30T06:16:29.839Z,97916.12
2019-04-30T06:17:34.487Z,97919.05
2019-04-30T06:18:38.513Z,97915.30
2019-04-30T06:19:41.088Z,97909.59
2019-04-30T06:20:43.532Z,97921.31
2019-04-30T06:21:46.724Z,97913.05
2019-04-30T06:22:52.207Z,97917.59
2019-04-30T06:23:54.800Z,97916.52
2019-04-30T06:24:59.407Z,97920.39
2019-04-30T06:26:09.922Z,97911.80
2019-04-30T06:27:10.536Z,97918.95
2019-04-30T06:28:12.820Z,97917.48
2019-04-30T06:29:15.428Z,97921.36
2019-04-30T06:30:19.845Z,97916.62
2019-04-30T06:31:31.869Z,97921.11
2019-04-30T06:32:29.434Z,97919.17
2019-04-30T06:33:33.306Z,97923.02
2019-04-30T06:34:41.630Z,97922.81
2019-04-30T06:35:42.500Z,97924.60
2019-04-30T06:36:51.123Z,97924.48
2019-04-30T06:37:49.202Z,97921.37
2019-04-30T06:38:52.011Z,97923.52
2019-04-30T06:39:55.124Z,97920.69
2019-04-30T06:40:58.879Z,97918.23
2019-04-30T06:42:06.902Z,97921.88
2019-04-30T06:43:09.153Z,97914.74
2019-04-30T06:44:12.188Z,97926.90
2019-04-30T06:45:14.827Z,97935.31
2019-04-30T06:46:18.596Z,97918.23
2019-04-30T06:47:32.374Z,97913.30
2019-04-30T06:48:29.538Z,97914.44
2019-04-30T06:49:32.241Z,97917.08
2019-04-30T06:50:35.553Z,97932.59
2019-04-30T06:51:38.938Z,97906.67
2019-04-30T06:52:53.974Z,97908.39
2019-04-30T06:53:48.925Z,97919.33
2019-04-30T06:54:50.859Z,97919.20
2019-04-30T06:55:53.545Z,97916.20
2019-04-30T06:56:56.177Z,97915.53
2019-04-30T06:58:11.495Z,97923.93
2019-04-30T06:59:03.978Z,97921.66
2019-04-30T07:00:09.816Z,97915.16
2019-04-30T07:01:13.137Z,97914.27
2019-04-30T07:02:15.682Z,97913.09
2019-04-30T07:03:19.148Z,97914.84
2019-04-30T07:04:21.406Z,97920.70
2019-04-30T07:05:24.102Z,97921.88
2019-04-30T07:06:29.836Z,97921.50
2019-04-30T07:07:39.030Z,97921.80
2019-04-30T07:08:55.808Z,97920.58
2019-04-30T07:10:01.354Z,97916.12
2019-04-30T07:11:22.733Z,97922.65
2019-04-30T07:12:29.886Z,97924.86
2019-04-30T07:13:33.856Z,97925.59
2019-04-30T07:14:39.985Z,97919.16
2019-04-30T07:15:42.504Z,97918.56
2019-04-30T07:16:45.104Z,97913.13
2019-04-30T07:17:49.164Z,97915.24
2019-04-30T07:18:52.242Z,97921.44
2019-04-30T07:21:00.349Z,97928.53
2019-04-30T07:22:03.672Z,97917.34
2019-04-30T07:23:09.325Z,97921.38
2019-04-30T07:24:12.137Z,97929.86
2019-04-30T07:25:14.120Z,97926.44
2019-04-30T07:26:19.686Z,97919.72
2019-04-30T07:27:24.122Z,97933.89
2019-04-30T07:28:42.687Z,97920.84
2019-04-30T07:29:31.933Z,97922.71
2019-04-30T07:30:34.872Z,97922.27
2019-04-30T07:31:39.253Z,97910.39
2019-04-30T07:32:42.835Z,97914.26
2019-04-30T07:33:45.408Z,97920.67
2019-04-30T07:34:49.534Z,97911.50
2019-04-30T07:35:52.321Z,97923.28
2019-04-30T07:37:10.697Z,97919.80
2019-04-30T07:38:04.730Z,97917.56
2019-04-30T07:39:06.442Z,97915.14
2019-04-30T07:40:09.390Z,97912.59
2019-04-30T07:41:12.480Z,97913.13
2019-04-30T07:42:14.814Z,97911.41
2019-04-30T07:43:18.815Z,97911.02
2019-04-30T07:44:33.698Z,97913.14
2019-04-30T07:45:31.579Z,97912.92
2019-04-30T07:46:35.075Z,97915.97
2019-04-30T07:47:36.985Z,97910.54
2019-04-30T07:48:40.657Z,97920.66
2019-04-30T07:49:49.755Z,97915.14
2019-04-30T07:50:51.452Z,97913.81
2019-04-30T07:51:52.467Z,97913.72
2019-04-30T07:53:03.492Z,97912.08
2019-04-30T07:54:02.251Z,97913.98
2019-04-30T07:55:05.090Z,97915.88
2019-04-30T07:56:23.562Z,97915.74
2019-04-30T07:57:11.758Z,97922.33
2019-04-30T07:58:15.141Z,97912.33
2019-04-30T07:59:19.953Z,97919.44
2019-04-30T08:00:22.187Z,97920.53
2019-04-30T08:01:24.725Z,97915.20
2019-04-30T08:02:29.847Z,97916.92
2019-04-30T08:03:54.832Z,97923.30
2019-04-30T08:04:59.969Z,97921.16
2019-04-30T08:06:04.501Z,97921.03
2019-04-30T08:07:06.369Z,97919.45
2019-04-30T08:08:20.983Z,97924.63
2019-04-30T08:09:13.380Z,97921.85
2019-04-30T08:09:36.584Z,97925.47
2019-04-30T08:10:18.638Z,97929.95
2019-04-30T08:11:26.343Z,97924.14
2019-04-30T08:12:33.501Z,97930.02
2019-04-30T08:13:33.380Z,97921.16
2019-04-30T08:14:36.401Z,97916.28
2019-04-30T08:15:42.345Z,97918.80
2019-04-30T08:16:46.258Z,97911.66
2019-04-30T08:18:02.340Z,97923.86
2019-04-30T08:18:54.594Z,97914.10
2019-04-30T08:19:58.787Z,97915.92
2019-04-30T08:21:02.020Z,97907.46
2019-04-30T08:22:04.456Z,97913.67
2019-04-30T08:23:20.242Z,97902.73
2019-04-30T08:24:12.138Z,97914.93
2019-04-30T08:25:15.422Z,97910.70
2019-04-30T08:26:19.366Z,97914.38
2019-04-30T08:27:21.808Z,97911.59
2019-04-30T08:28:24.734Z,97914.69
2019-04-30T08:29:29.370Z,97914.59
2019-04-30T08:30:31.500Z,97909.22
2019-04-30T08:31:34.215Z,97911.91
2019-04-30T08:32:36.414Z,97925.56
2019-04-30T08:33:40.203Z,97914.23
2019-04-30T08:34:42.678Z,97915.86
2019-04-30T08:35:46.977Z,97916.84
2019-04-30T08:36:51.443Z,97920.95
2019-04-30T08:37:53.280Z,97920.46
2019-04-30T08:38:56.587Z,97921.30
2019-04-30T08:40:03.392Z,97919.50
2019-04-30T08:41:05.052Z,97921.38
2019-04-30T08:42:09.004Z,97920.05
2019-04-30T08:43:13.543Z,97916.30
2019-04-30T08:44:16.830Z,97919.14
2019-04-30T08:45:20.111Z,97918.05
2019-04-30T08:46:22.516Z,97920.70
2019-04-30T08:47:24.903Z,97922.69
2019-04-30T08:48:43.689Z,97924.32
2019-04-30T08:49:33.047Z,97923.89
2019-04-30T08:50:36.540Z,97923.25
2019-04-30T08:51:40.059Z,97928.92
2019-04-30T08:52:42.949Z,97926.50
2019-04-30T08:53:45.577Z,97927.05
2019-04-30T08:54:49.557Z,97928.42
2019-04-30T08:55:53.074Z,97928.01
2019-04-30T08:56:55.655Z,97932.64
2019-04-30T08:58:09.616Z,97933.31
2019-04-30T08:59:05.810Z,97936.77
2019-04-30T09:00:11.780Z,97930.48
2019-04-30T09:01:13.387Z,97931.20
2019-04-30T09:02:16.576Z,97939.30
2019-04-30T09:03:21.105Z,97928.14
2019-04-30T09:04:26.411Z,97931.75
2019-04-30T09:05:35.121Z,97936.95
2019-04-30T09:06:38.969Z,97935.02
2019-04-30T09:07:42.828Z,97930.97
2019-04-30T09:08:45.378Z,97936.22
2019-04-30T09:09:48.828Z,97934.89
2019-04-30T09:10:51.673Z,97936.52
2019-04-30T09:11:55.723Z,97938.96
2019-04-30T09:12:59.762Z,97944.14
2019-04-30T09:14:02.531Z,97934.65
2019-04-30T09:15:05.911Z,97943.67
2019-04-30T09:16:09.240Z,97938.70
2019-04-30T09:17:13.952Z,97944.86
2019-04-30T09:18:18.919Z,97944.88
2019-04-30T09:19:21.275Z,97948.31
2019-04-30T09:20:25.600Z,97941.28
2019-04-30T09:21:29.839Z,97945.88
2019-04-30T09:22:31.902Z,97946.00
2019-04-30T09:23:47.505Z,97949.09
2019-04-30T09:24:39.212Z,97945.13
2019-04-30T09:25:42.543Z,97939.81
2019-04-30T09:26:45.067Z,97949.59
2019-04-30T09:27:48.780Z,97949.77
2019-04-30T09:28:51.496Z,97946.81
2019-04-30T09:29:53.693Z,97949.47
2019-04-30T09:30:56.172Z,97948.33
2019-04-30T09:31:59.533Z,97951.95
2019-04-30T09:33:01.938Z,97959.13
2019-04-30T09:34:14.223Z,97951.64
2019-04-30T09:35:09.815Z,97948.94
2019-04-30T09:36:12.108Z,97948.86
2019-04-30T09:37:14.512Z,97953.59
2019-04-30T09:38:19.407Z,97950.69
2019-04-30T09:39:23.192Z,97950.69
2019-04-30T09:40:26.254Z,97947.08
2019-04-30T09:41:29.338Z,97945.59
2019-04-30T09:42:31.350Z,97953.47
2019-04-30T09:43:35.054Z,97954.38
2019-04-30T09:44:39.030Z,97951.48
2019-04-30T09:45:41.936Z,97954.80
2019-04-30T09:46:44.713Z,97954.69
2019-04-30T09:47:47.313Z,97952.44
2019-04-30T09:48:50.845Z,97953.28
2019-04-30T09:49:53.500Z,97956.66
2019-04-30T09:50:57.040Z,97952.36
2019-04-30T09:52:00.615Z,97954.69
2019-04-30T09:53:03.394Z,97953.47
2019-04-30T09:54:11.432Z,97952.81
2019-04-30T09:55:12.516Z,97948.56
2019-04-30T09:56:15.008Z,97949.35
2019-04-30T09:57:19.313Z,97948.22
2019-04-30T09:58:21.378Z,97944.03
2019-04-30T09:59:23.752Z,97943.50
2019-04-30T10:00:26.711Z,97941.06
2019-04-30T10:01:28.777Z,97946.69
2019-04-30T10:02:31.114Z,97953.46
2019-04-30T10:03:33.986Z,97952.78
2019-04-30T10:04:39.380Z,97946.62
2019-04-30T10:05:41.373Z,97950.31
2019-04-30T10:06:43.793Z,97953.42
2019-04-30T10:07:47.050Z,97951.41
2019-04-30T10:08:51.346Z,97955.14
2019-04-30T10:09:53.616Z,97954.45
2019-04-30T10:11:05.969Z,97953.28
2019-04-30T10:12:10.712Z,97950.92
2019-04-30T10:13:13.746Z,97949.16
2019-04-30T10:14:16.054Z,97945.36
2019-04-30T10:15:37.248Z,97948.02
2019-04-30T10:16:49.492Z,97945.86
2019-04-30T10:17:53.038Z,97940.34
2019-04-30T10:18:54.748Z,97941.48
2019-04-30T10:19:57.385Z,97941.40
2019-04-30T10:21:00.910Z,97944.17
2019-04-30T10:22:03.378Z,97946.23
2019-04-30T10:23:05.657Z,97942.12
2019-04-30T10:24:14.729Z,97945.84
2019-04-30T10:25:13.582Z,97939.91
2019-04-30T10:26:17.527Z,97938.98
2019-04-30T10:27:19.778Z,97942.27
2019-04-30T10:28:22.841Z,97944.84
2019-04-30T10:29:26.996Z,97948.11
2019-04-30T10:30:35.131Z,97943.92
2019-04-30T10:31:39.042Z,97939.01
2019-04-30T10:32:41.792Z,97943.95
2019-04-30T10:33:45.533Z,97943.50
2019-04-30T10:34:48.424Z,97942.08
2019-04-30T10:35:50.907Z,97943.50
2019-04-30T10:36:52.754Z,97941.48
2019-04-30T10:37:55.181Z,97937.59
2019-04-30T10:38:59.364Z,97939.14
2019-04-30T10:40:01.136Z,97940.98
2019-04-30T10:41:04.386Z,97938.02
2019-04-30T10:42:06.901Z,97940.45
2019-04-30T10:43:09.364Z,97937.81
2019-04-30T10:44:11.891Z,97939.88
2019-04-30T10:45:14.880Z,97938.84
2019-04-30T10:46:18.033Z,97941.42
2019-04-30T10:47:21.382Z,97939.16
2019-04-30T10:48:23.842Z,97937.20
2019-04-30T10:49:26.340Z,97935.18
2019-04-30T10:50:31.239Z,97934.59
2019-04-30T10:51:33.599Z,97929.36
2019-04-30T10:52:39.434Z,97931.91
2019-04-30T10:53:41.785Z,97936.20
2019-04-30T10:55:51.881Z,97935.20
2019-04-30T10:56:54.172Z,97934.87
2019-04-30T10:57:56.976Z,97939.61
2019-04-30T10:58:59.326Z,97945.25
2019-04-30T11:00:04.074Z,97941.45
2019-04-30T11:01:07.003Z,97945.25
2019-04-30T11:02:09.639Z,97942.99
2019-04-30T11:03:19.951Z,97940.43
2019-04-30T11:04:18.167Z,97945.33
2019-04-30T11:05:21.111Z,97943.50
2019-04-30T11:06:24.020Z,97941.86
2019-04-30T11:07:28.695Z,97934.97
2019-04-30T11:08:31.057Z,97941.64
2019-04-30T11:09:33.767Z,97939.30
2019-04-30T11:10:36.563Z,97937.73
2019-04-30T11:11:39.733Z,97938.24
2019-04-30T11:12:41.811Z,97945.01
2019-04-30T11:13:44.803Z,97941.94
2019-04-30T11:14:47.414Z,97939.91
2019-04-30T11:15:49.945Z,97939.80
2019-04-30T11:16:52.294Z,97937.14
2019-04-30T11:17:55.003Z,97942.58
2019-04-30T11:18:59.104Z,97944.31
2019-04-30T11:20:05.967Z,97947.08
2019-04-30T11:21:09.765Z,97950.95
2019-04-30T11:22:12.470Z,97947.78
2019-04-30T11:23:15.234Z,97945.22
2019-04-30T11:24:19.593Z,97944.71
2019-04-30T11:25:24.710Z,97943.68
2019-04-30T11:26:31.412Z,97951.15
2019-04-30T11:27:33.775Z,97939.98
2019-04-30T11:28:36.995Z,97940.08
2019-04-30T11:29:39.626Z,97940.28
2019-04-30T11:30:43.913Z,97936.08
2019-04-30T11:31:48.327Z,97934.74
2019-04-30T11:32:51.824Z,97941.81
2019-04-30T11:34:01.959Z,97934.84
2019-04-30T11:35:06.242Z,97938.02
2019-04-30T11:36:09.729Z,97932.08
2019-04-30T11:37:11.848Z,97937.71
2019-04-30T11:38:14.731Z,97933.84
2019-04-30T11:39:19.398Z,97931.88
2019-04-30T11:40:34.306Z,97926.74
2019-04-30T11:41:33.321Z,97924.91
2019-04-30T11:42:36.367Z,97921.31
2019-04-30T11:43:39.419Z,97928.17
2019-04-30T11:44:42.303Z,97925.20
2019-04-30T11:45:55.015Z,97928.08
2019-04-30T11:47:10.717Z,97923.44
2019-04-30T11:48:13.757Z,97926.73
2019-04-30T11:49:16.275Z,97922.73
2019-04-30T11:50:19.451Z,97923.54
2019-04-30T11:51:22.773Z,97925.50
2019-04-30T11:52:25.224Z,97919.14
2019-04-30T11:53:30.518Z,97922.50
2019-04-30T11:54:31.738Z,97925.80
2019-04-30T11:55:34.808Z,97923.94
2019-04-30T11:56:38.386Z,97922.43
2019-04-30T11:57:40.207Z,97921.49
2019-04-30T11:58:42.593Z,97921.59
2019-04-30T11:59:47.391Z,97920.66
2019-04-30T12:00:49.565Z,97918.61
2019-04-30T12:01:53.940Z,97921.58
2019-04-30T12:02:56.471Z,97912.54
2019-04-30T12:03:59.908Z,97919.11
2019-04-30T12:05:06.091Z,97916.44
2019-04-30T12:06:10.182Z,97918.07
2019-04-30T12:07:24.676Z,97917.87
2019-04-30T12:08:30.462Z,97910.76
2019-04-30T12:09:34.673Z,97916.39
2019-04-30T12:10:39.198Z,97912.64
2019-04-30T12:11:45.518Z,97907.95
2019-04-30T12:12:48.720Z,97911.03
2019-04-30T12:13:51.085Z,97909.91
2019-04-30T12:14:54.430Z,97914.44
2019-04-30T12:15:58.639Z,97908.61
2019-04-30T12:17:01.504Z,97905.94
2019-04-30T12:18:04.023Z,97908.94
2019-04-30T12:19:05.999Z,97907.91
2019-04-30T12:20:09.196Z,97918.57
2019-04-30T12:21:11.086Z,97911.30
2019-04-30T12:22:13.847Z,97904.94
2019-04-30T12:23:16.183Z,97907.10
2019-04-30T12:24:21.144Z,97904.84
2019-04-30T12:25:23.552Z,97904.84
2019-04-30T12:26:26.106Z,97904.53
2019-04-30T12:27:28.821Z,97904.00
2019-04-30T12:28:31.102Z,97906.17
2019-04-30T12:29:33.735Z,97906.97
2019-04-30T12:30:39.031Z,97897.14
2019-04-30T12:31:41.599Z,97903.47
2019-04-30T12:32:44.254Z,97898.04
2019-04-30T12:33:46.448Z,97899.38